Time;durP1;ratioP1;P1;durP2;ratioP2;P2;SDS_P1;SDS_P2;PMS_P1;PMS_P2;Temp;Humidity;BMP_temperature;BMP_pressure;BME280_temperature;BME280_humidity;BME280_pressure;Samples;Min_cycle;Max_cycle;Signal;HPM_P1;HPM_P2
2023/05/15 00:02:11;;;;;;;38.67;33.88;;;;;;;;;;4954453;28;20035;-76
2023/05/15 00:04:37;;;;;;;41.45;36.97;;;;;;;;;;4950819;28;20018;-77
2023/05/15 00:07:02;;;;;;;49.92;38.22;;;;;;;;;;4942146;28;20101;-76
2023/05/15 00:09:27;;;;;;;43.50;37.88;;;;;;;;;;4967557;28;20022;-76
2023/05/15 00:11:53;;;;;;;50.35;44.78;;;;;;;;;;4952392;28;21142;-77
2023/05/15 00:14:18;;;;;;;44.33;39.53;;;;;;;;;;4947408;28;20041;-75
2023/05/15 00:16:43;;;;;;;39.50;35.08;;;;;;;;;;4951452;28;20226;-77
2023/05/15 00:19:09;;;;;;;38.13;34.13;;;;;;;;;;4951041;28;20035;-77
2023/05/15 00:21:34;;;;;;;39.75;35.50;;;;;;;;;;4952164;28;20115;-74
2023/05/15 00:24:00;;;;;;;39.20;35.10;;;;;;;;;;4953402;28;20023;-74
2023/05/15 00:26:25;;;;;;;37.13;33.28;;;;;;;;;;4953696;28;20078;-75
2023/05/15 00:28:50;;;;;;;36.60;32.67;;;;;;;;;;4956806;28;20027;-77
2023/05/15 00:31:16;;;;;;;36.47;32.67;;;;;;;;;;4951145;28;20453;-75
2023/05/15 00:33:41;;;;;;;38.05;34.03;;;;;;;;;;4947191;28;20464;-75
2023/05/15 00:36:07;;;;;;;41.17;36.72;;;;;;;;;;4953563;28;20076;-76
2023/05/15 00:38:32;;;;;;;41.35;36.20;;;;;;;;;;4946124;28;20410;-76
2023/05/15 00:40:58;;;;;;;46.08;39.28;;;;;;;;;;4958644;28;20670;-76
2023/05/15 00:43:24;;;;;;;43.63;36.58;;;;;;;;;;4961328;28;20042;-77
2023/05/15 00:45:51;;;;;;;41.25;34.55;;;;;;;;;;4958601;28;20110;-78
2023/05/15 00:48:16;;;;;;;40.38;35.40;;;;;;;;;;4947999;28;20026;-76
2023/05/15 00:50:42;;;;;;;51.05;40.22;;;;;;;;;;4959681;28;20050;-78
2023/05/15 00:53:08;;;;;;;43.42;36.13;;;;;;;;;;4945852;28;20034;-76
2023/05/15 00:55:34;;;;;;;43.58;37.63;;;;;;;;;;4957709;28;20027;-76
2023/05/15 00:58:00;;;;;;;51.65;41.53;;;;;;;;;;4964144;28;20073;-76
2023/05/15 01:00:26;;;;;;;46.80;40.03;;;;;;;;;;4952460;28;20027;-76
2023/05/15 01:02:52;;;;;;;41.53;37.03;;;;;;;;;;4944922;28;20035;-76
2023/05/15 01:05:18;;;;;;;44.42;39.15;;;;;;;;;;4957388;28;20023;-75
2023/05/15 01:08:03;;;;;;;42.58;37.85;;;;;;;;;;4958274;28;20509;-75
2023/05/15 01:10:29;;;;;;;41.35;36.90;;;;;;;;;;4951278;28;20054;-78
2023/05/15 01:12:55;;;;;;;52.70;45.70;;;;;;;;;;4951573;28;20073;-77
2023/05/15 01:15:20;;;;;;;49.03;42.30;;;;;;;;;;4959781;28;20039;-77
2023/05/15 01:17:46;;;;;;;48.90;41.60;;;;;;;;;;4955537;28;20467;-77
2023/05/15 01:20:13;;;;;;;45.88;38.42;;;;;;;;;;4959343;28;20081;-76
2023/05/15 01:22:59;;;;;;;43.47;38.85;;;;;;;;;;4959709;28;20038;-78
2023/05/15 01:25:33;;;;;;;43.65;37.22;;;;;;;;;;4937172;28;20038;-76
2023/05/15 01:28:01;;;;;;;46.42;40.03;;;;;;;;;;4952149;28;20027;-79
2023/05/15 01:30:32;;;;;;;52.67;42.75;;;;;;;;;;4956857;28;20038;-78
2023/05/15 01:33:16;;;;;;;42.13;36.90;;;;;;;;;;4954975;28;20395;-79
2023/05/15 01:35:50;;;;;;;40.83;36.35;;;;;;;;;;4955218;28;20050;-76
2023/05/15 01:38:28;;;;;;;39.75;35.45;;;;;;;;;;4957737;28;20451;-77
2023/05/15 01:41:00;;;;;;;44.67;38.83;;;;;;;;;;4957502;28;20047;-77
2023/05/15 01:43:27;;;;;;;41.83;37.10;;;;;;;;;;4954956;28;20024;-77
2023/05/15 01:45:54;;;;;;;40.70;35.58;;;;;;;;;;4958439;28;20023;-78
2023/05/15 01:48:20;;;;;;;41.10;34.30;;;;;;;;;;4950019;28;20026;-77
2023/05/15 01:50:46;;;;;;;40.75;36.10;;;;;;;;;;4955282;28;20045;-78
2023/05/15 01:53:11;;;;;;;39.95;35.65;;;;;;;;;;4955212;28;20458;-77
2023/05/15 01:55:37;;;;;;;43.30;36.88;;;;;;;;;;4956558;28;20083;-78
2023/05/15 01:58:03;;;;;;;42.22;37.38;;;;;;;;;;4953635;28;20031;-77
2023/05/15 02:00:29;;;;;;;42.72;34.70;;;;;;;;;;4954993;28;20172;-78
2023/05/15 02:02:55;;;;;;;41.80;33.38;;;;;;;;;;4957187;28;20030;-77
2023/05/15 02:05:20;;;;;;;49.90;35.85;;;;;;;;;;4956814;28;20022;-76
2023/05/15 02:07:47;;;;;;;39.20;33.72;;;;;;;;;;4954767;28;20026;-76
2023/05/15 02:10:12;;;;;;;39.38;30.52;;;;;;;;;;4956004;28;20031;-77
2023/05/15 02:12:39;;;;;;;37.67;33.20;;;;;;;;;;4952700;28;20023;-78
2023/05/15 02:15:05;;;;;;;43.70;35.05;;;;;;;;;;4951800;28;20160;-77
2023/05/15 02:17:31;;;;;;;52.15;36.83;;;;;;;;;;4953698;28;20478;-77
2023/05/15 02:19:56;;;;;;;40.85;32.20;;;;;;;;;;4954330;28;20027;-75
2023/05/15 02:22:21;;;;;;;34.97;30.60;;;;;;;;;;4956835;28;20089;-77
2023/05/15 02:24:47;;;;;;;42.80;29.52;;;;;;;;;;4956570;28;20106;-77
2023/05/15 02:27:16;;;;;;;36.03;28.17;;;;;;;;;;4960395;28;20082;-77
2023/05/15 02:29:47;;;;;;;41.08;34.60;;;;;;;;;;4956491;28;20030;-77
2023/05/15 02:32:45;;;;;;;82.10;54.08;;;;;;;;;;4955742;28;20039;-76
2023/05/15 02:35:13;;;;;;;57.55;41.67;;;;;;;;;;4933517;28;20089;-78
2023/05/15 02:37:40;;;;;;;43.42;35.88;;;;;;;;;;4954792;28;20027;-76
2023/05/15 02:40:10;;;;;;;33.15;29.50;;;;;;;;;;4953989;28;20034;-77
2023/05/15 02:43:12;;;;;;;29.63;26.50;;;;;;;;;;5132627;27;20375;-75
2023/05/15 02:45:38;;;;;;;30.13;27.00;;;;;;;;;;5112635;27;20027;-79
2023/05/15 02:48:04;;;;;;;43.45;34.33;;;;;;;;;;5110336;28;20746;-77
2023/05/15 02:50:29;;;;;;;36.78;31.75;;;;;;;;;;5108757;27;20032;-77
2023/05/15 02:53:02;;;;;;;32.17;28.77;;;;;;;;;;5111480;27;20096;-77
2023/05/15 02:55:27;;;;;;;28.85;25.80;;;;;;;;;;5112765;28;20122;-75
2023/05/15 02:57:53;;;;;;;31.15;27.60;;;;;;;;;;5108371;28;20398;-76
2023/05/15 03:00:18;;;;;;;29.13;26.20;;;;;;;;;;5104900;27;20027;-76
2023/05/15 03:02:43;;;;;;;29.92;26.92;;;;;;;;;;5113532;27;20023;-76
2023/05/15 03:05:09;;;;;;;29.60;25.88;;;;;;;;;;5108926;27;20806;-75
2023/05/15 03:07:34;;;;;;;28.52;25.48;;;;;;;;;;5100098;28;20408;-74
2023/05/15 03:09:59;;;;;;;30.10;27.00;;;;;;;;;;5113094;28;20038;-77
2023/05/15 03:12:25;;;;;;;27.48;24.85;;;;;;;;;;5109478;27;20331;-76
2023/05/15 03:14:50;;;;;;;26.88;24.05;;;;;;;;;;5111509;27;20015;-77
2023/05/15 03:17:15;;;;;;;42.83;34.88;;;;;;;;;;5112455;28;20059;-77
2023/05/15 03:19:41;;;;;;;38.60;33.35;;;;;;;;;;5107774;27;20456;-77
2023/05/15 03:22:06;;;;;;;44.90;33.65;;;;;;;;;;5104282;27;20418;-77
2023/05/15 03:24:32;;;;;;;41.53;34.40;;;;;;;;;;5099933;27;20038;-76
2023/05/15 03:26:57;;;;;;;38.42;32.22;;;;;;;;;;5108019;28;20038;-79
2023/05/15 03:29:22;;;;;;;36.13;32.28;;;;;;;;;;5103883;28;20076;-76
2023/05/15 03:31:47;;;;;;;37.40;33.08;;;;;;;;;;5106216;28;20031;-76
2023/05/15 03:34:13;;;;;;;43.63;35.55;;;;;;;;;;5114530;27;20456;-80
2023/05/15 03:36:38;;;;;;;39.13;34.30;;;;;;;;;;5111949;27;20409;-80
2023/05/15 03:39:04;;;;;;;35.30;31.58;;;;;;;;;;5102479;28;20035;-76
2023/05/15 03:41:29;;;;;;;41.28;34.67;;;;;;;;;;5075486;27;20056;-77
2023/05/15 03:43:54;;;;;;;54.35;43.47;;;;;;;;;;5028313;28;20498;-78
2023/05/15 03:46:20;;;;;;;61.85;51.13;;;;;;;;;;5025334;28;20026;-79
2023/05/15 03:48:45;;;;;;;45.78;39.03;;;;;;;;;;5031747;28;20444;-77
2023/05/15 03:51:10;;;;;;;31.13;27.92;;;;;;;;;;5016051;28;20033;-78
2023/05/15 03:53:36;;;;;;;30.75;27.65;;;;;;;;;;5005067;28;20068;-76
2023/05/15 03:56:02;;;;;;;47.95;42.72;;;;;;;;;;4992290;28;20033;-76
2023/05/15 03:58:27;;;;;;;44.30;39.60;;;;;;;;;;4991094;28;20026;-77
2023/05/15 04:00:53;;;;;;;31.92;26.98;;;;;;;;;;4990872;28;20355;-76
2023/05/15 04:03:18;;;;;;;31.00;27.55;;;;;;;;;;4990484;28;20034;-77
2023/05/15 04:05:44;;;;;;;55.15;37.67;;;;;;;;;;5002908;28;20458;-78
2023/05/15 04:08:11;;;;;;;45.67;32.67;;;;;;;;;;5016165;28;20113;-76
2023/05/15 04:10:36;;;;;;;36.03;31.00;;;;;;;;;;5012585;28;20120;-75
2023/05/15 04:13:02;;;;;;;61.05;37.25;;;;;;;;;;4998448;28;20116;-74
2023/05/15 04:15:27;;;;;;;44.85;32.25;;;;;;;;;;5012627;28;20143;-75
2023/05/15 04:17:52;;;;;;;33.83;28.35;;;;;;;;;;4995600;28;20115;-76
2023/05/15 04:20:19;;;;;;;126.70;65.78;;;;;;;;;;4991585;28;20085;-77
2023/05/15 04:22:45;;;;;;;92.60;54.78;;;;;;;;;;4988303;28;20018;-76
2023/05/15 04:25:11;;;;;;;40.60;34.95;;;;;;;;;;4990305;28;20341;-76
2023/05/15 04:27:36;;;;;;;57.72;51.58;;;;;;;;;;5001201;28;20946;-76
2023/05/15 04:30:05;;;;;;;45.83;41.03;;;;;;;;;;5009302;28;20469;-75
2023/05/15 04:32:32;;;;;;;37.55;33.63;;;;;;;;;;5019182;28;20051;-78
2023/05/15 04:34:58;;;;;;;35.53;31.98;;;;;;;;;;5002574;28;20359;-78
2023/05/15 04:37:24;;;;;;;29.00;26.10;;;;;;;;;;5009780;28;20170;-76
2023/05/15 04:39:49;;;;;;;25.60;23.13;;;;;;;;;;5012920;28;20568;-76
2023/05/15 04:42:15;;;;;;;24.20;21.80;;;;;;;;;;4992816;28;20050;-76
2023/05/15 04:44:40;;;;;;;23.23;21.05;;;;;;;;;;5009147;28;20040;-77
2023/05/15 04:47:05;;;;;;;22.40;20.27;;;;;;;;;;5009748;28;20448;-76
2023/05/15 04:49:31;;;;;;;22.33;20.33;;;;;;;;;;5013745;28;20018;-76
2023/05/15 04:51:56;;;;;;;29.70;26.90;;;;;;;;;;5014512;28;20041;-76
2023/05/15 04:54:21;;;;;;;31.20;27.75;;;;;;;;;;5011555;28;20089;-76
2023/05/15 04:56:47;;;;;;;30.08;26.95;;;;;;;;;;5001762;28;20610;-77
2023/05/15 04:59:16;;;;;;;34.85;31.15;;;;;;;;;;5006066;28;20211;-77
2023/05/15 05:01:42;;;;;;;31.20;27.92;;;;;;;;;;5000578;28;20040;-77
2023/05/15 05:04:07;;;;;;;31.55;28.35;;;;;;;;;;5005799;28;20364;-76
2023/05/15 05:06:33;;;;;;;33.05;29.85;;;;;;;;;;5012672;28;20029;-77
2023/05/15 05:08:58;;;;;;;29.23;26.15;;;;;;;;;;5012626;28;20022;-76
2023/05/15 05:11:23;;;;;;;30.15;26.95;;;;;;;;;;5005546;28;20048;-77
2023/05/15 05:13:49;;;;;;;41.20;31.98;;;;;;;;;;5010567;28;20374;-76
2023/05/15 05:16:15;;;;;;;48.92;33.80;;;;;;;;;;5013381;28;20022;-78
2023/05/15 05:18:40;;;;;;;39.67;34.35;;;;;;;;;;5015214;28;20048;-77
2023/05/15 05:21:05;;;;;;;58.17;39.13;;;;;;;;;;5010189;28;20041;-76
2023/05/15 05:23:31;;;;;;;34.40;30.90;;;;;;;;;;4997327;28;20025;-79
2023/05/15 05:25:56;;;;;;;37.83;33.80;;;;;;;;;;5001213;28;20034;-76
2023/05/15 05:28:22;;;;;;;31.85;28.65;;;;;;;;;;5002734;28;20025;-78
2023/05/15 05:30:47;;;;;;;37.65;33.70;;;;;;;;;;4999990;28;20048;-75
2023/05/15 05:33:13;;;;;;;35.88;31.88;;;;;;;;;;5005182;28;20108;-76
2023/05/15 05:35:38;;;;;;;34.67;31.20;;;;;;;;;;4999055;28;20021;-76
2023/05/15 05:38:04;;;;;;;34.13;30.63;;;;;;;;;;4998301;28;20029;-77
2023/05/15 05:40:29;;;;;;;30.83;27.70;;;;;;;;;;5008182;28;20522;-77
2023/05/15 05:42:58;;;;;;;30.77;27.70;;;;;;;;;;5013517;28;20426;-78
2023/05/15 05:45:24;;;;;;;246.50;220.32;;;;;;;;;;5003852;28;20425;-76
2023/05/15 05:47:49;;;;;;;77.75;69.80;;;;;;;;;;5000871;28;20040;-76
2023/05/15 05:50:14;;;;;;;28.92;26.27;;;;;;;;;;5000882;28;20029;-76
2023/05/15 05:52:40;;;;;;;24.80;22.60;;;;;;;;;;5002688;28;20375;-75
2023/05/15 05:55:05;;;;;;;28.20;25.50;;;;;;;;;;5007828;28;20162;-76
2023/05/15 05:57:31;;;;;;;25.90;23.52;;;;;;;;;;5012297;28;20433;-76
2023/05/15 05:59:56;;;;;;;37.92;33.85;;;;;;;;;;5011705;28;20028;-77
2023/05/15 06:02:21;;;;;;;54.78;46.88;;;;;;;;;;5013669;28;20034;-76
2023/05/15 06:04:47;;;;;;;35.92;32.42;;;;;;;;;;5013312;28;20065;-76
2023/05/15 06:07:12;;;;;;;30.38;27.27;;;;;;;;;;5009497;28;20021;-76
2023/05/15 06:09:37;;;;;;;43.67;39.08;;;;;;;;;;5012850;28;20456;-77
2023/05/15 06:12:07;;;;;;;39.58;35.42;;;;;;;;;;5014218;28;20025;-77
2023/05/15 06:14:32;;;;;;;36.90;33.20;;;;;;;;;;5011917;28;20021;-77
2023/05/15 06:16:57;;;;;;;69.10;63.03;;;;;;;;;;5013264;28;20409;-78
2023/05/15 06:19:23;;;;;;;51.95;47.00;;;;;;;;;;5012716;28;20021;-77
2023/05/15 06:21:48;;;;;;;38.88;35.13;;;;;;;;;;5014187;28;20037;-77
2023/05/15 06:24:14;;;;;;;32.80;29.75;;;;;;;;;;5010606;28;20518;-77
2023/05/15 06:26:39;;;;;;;34.67;31.27;;;;;;;;;;5009061;28;20333;-75
2023/05/15 06:29:04;;;;;;;34.08;30.55;;;;;;;;;;5010977;28;20032;-76
2023/05/15 06:31:30;;;;;;;39.70;35.83;;;;;;;;;;5012828;28;20093;-76
2023/05/15 06:33:55;;;;;;;39.35;35.55;;;;;;;;;;5011060;28;20337;-76
2023/05/15 06:36:21;;;;;;;33.83;30.52;;;;;;;;;;5012131;28;20025;-76
2023/05/15 06:38:46;;;;;;;36.53;33.03;;;;;;;;;;5013346;28;20021;-78
2023/05/15 06:41:11;;;;;;;32.47;29.33;;;;;;;;;;5010615;28;20049;-76
2023/05/15 06:43:37;;;;;;;32.75;29.67;;;;;;;;;;5010960;28;20069;-77
2023/05/15 06:46:02;;;;;;;69.97;52.58;;;;;;;;;;5012671;28;20029;-78
2023/05/15 06:48:27;;;;;;;71.95;50.95;;;;;;;;;;5012675;28;20075;-78
2023/05/15 06:50:53;;;;;;;35.00;31.20;;;;;;;;;;5010710;28;20466;-77
2023/05/15 06:53:19;;;;;;;33.45;30.35;;;;;;;;;;5009553;28;20157;-77
2023/05/15 06:55:45;;;;;;;28.63;25.98;;;;;;;;;;5011293;28;20028;-74
2023/05/15 06:58:10;;;;;;;30.33;27.38;;;;;;;;;;5012478;28;20025;-77
2023/05/15 07:00:36;;;;;;;27.48;24.92;;;;;;;;;;5012240;28;20046;-77
2023/05/15 07:03:01;;;;;;;34.90;31.27;;;;;;;;;;5010293;28;20042;-77
2023/05/15 07:05:26;;;;;;;31.77;28.67;;;;;;;;;;5011912;28;20026;-78
2023/05/15 07:07:52;;;;;;;26.95;24.10;;;;;;;;;;5011624;28;20021;-77
2023/05/15 07:10:17;;;;;;;25.35;23.00;;;;;;;;;;5011436;28;20022;-75
2023/05/15 07:12:42;;;;;;;26.45;23.95;;;;;;;;;;5011325;28;20033;-78
2023/05/15 07:15:08;;;;;;;25.48;22.98;;;;;;;;;;5011734;28;20047;-76
2023/05/15 07:17:33;;;;;;;27.40;24.73;;;;;;;;;;5012337;28;20148;-76
2023/05/15 07:19:59;;;;;;;21.08;19.08;;;;;;;;;;5012632;28;20053;-76
2023/05/15 07:22:25;;;;;;;22.27;20.08;;;;;;;;;;5010472;28;20110;-76
2023/05/15 07:24:51;;;;;;;22.17;19.98;;;;;;;;;;5011737;28;20880;-76
2023/05/15 07:27:16;;;;;;;24.13;22.02;;;;;;;;;;5009972;28;20025;-76
2023/05/15 07:29:41;;;;;;;27.50;25.00;;;;;;;;;;5012391;28;20026;-76
2023/05/15 07:32:07;;;;;;;24.98;22.77;;;;;;;;;;5015831;28;20038;-76
2023/05/15 07:34:32;;;;;;;24.50;22.10;;;;;;;;;;5013995;28;20098;-76
2023/05/15 07:36:57;;;;;;;28.13;25.27;;;;;;;;;;5013783;28;20041;-75
2023/05/15 07:39:23;;;;;;;40.63;36.83;;;;;;;;;;5015601;28;20037;-75
2023/05/15 07:41:48;;;;;;;39.13;35.03;;;;;;;;;;5016213;28;20140;-76
2023/05/15 07:44:13;;;;;;;35.45;31.85;;;;;;;;;;5012721;28;20063;-75
2023/05/15 07:46:39;;;;;;;36.40;32.67;;;;;;;;;;5013849;28;20026;-76
2023/05/15 07:49:04;;;;;;;39.75;35.88;;;;;;;;;;5015454;28;20050;-76
2023/05/15 07:51:30;;;;;;;35.72;32.47;;;;;;;;;;5016696;28;20464;-76
2023/05/15 07:53:55;;;;;;;39.10;35.20;;;;;;;;;;5011937;28;20112;-76
2023/05/15 07:56:21;;;;;;;39.72;35.90;;;;;;;;;;5014239;28;20040;-77
2023/05/15 07:58:46;;;;;;;34.17;30.80;;;;;;;;;;5012663;28;20029;-76
2023/05/15 08:01:11;;;;;;;35.50;31.90;;;;;;;;;;5014895;28;20087;-76
2023/05/15 08:03:37;;;;;;;32.40;29.20;;;;;;;;;;5014538;28;20026;-76
2023/05/15 08:06:02;;;;;;;39.00;35.08;;;;;;;;;;5015647;28;20452;-75
2023/05/15 08:08:27;;;;;;;37.15;33.25;;;;;;;;;;5014048;28;20463;-75
2023/05/15 08:10:53;;;;;;;26.70;23.80;;;;;;;;;;5014875;28;20021;-75
2023/05/15 08:13:18;;;;;;;27.20;24.42;;;;;;;;;;5013980;28;20140;-76
2023/05/15 08:15:44;;;;;;;28.15;25.25;;;;;;;;;;5010257;28;20037;-75
2023/05/15 08:18:09;;;;;;;25.65;23.35;;;;;;;;;;5012900;28;20440;-76
2023/05/15 08:20:35;;;;;;;20.48;18.58;;;;;;;;;;5015305;28;20352;-76
2023/05/15 08:23:01;;;;;;;17.52;15.70;;;;;;;;;;5013080;28;20125;-75
2023/05/15 08:25:26;;;;;;;18.10;16.38;;;;;;;;;;5012795;28;20189;-75
2023/05/15 08:27:51;;;;;;;16.92;15.32;;;;;;;;;;5015500;28;20109;-76
2023/05/15 08:30:17;;;;;;;17.27;15.60;;;;;;;;;;5015490;28;20044;-75
2023/05/15 08:32:44;;;;;;;17.55;15.82;;;;;;;;;;5014746;28;20489;-74
2023/05/15 08:35:10;;;;;;;15.70;14.27;;;;;;;;;;5015369;28;20355;-77
2023/05/15 08:37:35;;;;;;;19.55;17.70;;;;;;;;;;5014594;28;20037;-75
2023/05/15 08:40:01;;;;;;;19.75;17.75;;;;;;;;;;5012408;28;20034;-75
2023/05/15 08:42:46;;;;;;;20.95;18.88;;;;;;;;;;5011962;28;20050;-75
2023/05/15 08:45:12;;;;;;;20.77;18.27;;;;;;;;;;5011818;28;20053;-76
2023/05/15 08:47:39;;;;;;;26.45;21.58;;;;;;;;;;5014884;28;20036;-77
2023/05/15 08:50:07;;;;;;;28.17;23.40;;;;;;;;;;5014088;28;20014;-75
2023/05/15 08:52:33;;;;;;;23.88;20.55;;;;;;;;;;5011849;28;20029;-75
2023/05/15 08:54:59;;;;;;;20.35;18.10;;;;;;;;;;5014503;28;20056;-75
2023/05/15 08:57:25;;;;;;;17.33;15.68;;;;;;;;;;5014937;28;20053;-75
2023/05/15 08:59:51;;;;;;;16.13;14.48;;;;;;;;;;5012593;28;20093;-75
2023/05/15 09:02:18;;;;;;;16.65;14.95;;;;;;;;;;5010906;28;20352;-76
2023/05/15 09:04:43;;;;;;;16.30;14.90;;;;;;;;;;5011868;28;20409;-77
2023/05/15 09:07:10;;;;;;;17.10;15.48;;;;;;;;;;5014509;28;20162;-77
2023/05/15 09:09:36;;;;;;;18.05;16.35;;;;;;;;;;5012807;28;20029;-75
2023/05/15 09:12:02;;;;;;;17.35;15.88;;;;;;;;;;5012251;28;20493;-77
2023/05/15 09:14:28;;;;;;;17.58;16.05;;;;;;;;;;5013463;28;20092;-76
2023/05/15 09:16:53;;;;;;;19.75;17.10;;;;;;;;;;5013738;28;20516;-77
2023/05/15 09:19:21;;;;;;;18.33;16.63;;;;;;;;;;5011709;28;20576;-76
2023/05/15 09:21:47;;;;;;;19.17;16.77;;;;;;;;;;5011932;28;20026;-76
2023/05/15 09:24:15;;;;;;;17.88;16.25;;;;;;;;;;5013026;28;20026;-76
2023/05/15 09:26:41;;;;;;;18.13;16.40;;;;;;;;;;5014231;28;20021;-75
2023/05/15 09:29:07;;;;;;;18.10;16.33;;;;;;;;;;5011055;28;20262;-75
2023/05/15 09:31:32;;;;;;;21.27;19.27;;;;;;;;;;5012707;28;20021;-77
2023/05/15 09:33:59;;;;;;;22.55;20.38;;;;;;;;;;5014928;28;20071;-76
2023/05/15 09:36:25;;;;;;;20.08;18.08;;;;;;;;;;5011794;28;20082;-76
2023/05/15 09:38:56;;;;;;;20.90;18.90;;;;;;;;;;5012029;28;20379;-75
2023/05/15 09:41:23;;;;;;;24.08;18.65;;;;;;;;;;5011907;28;20086;-76
2023/05/15 09:43:48;;;;;;;20.33;18.45;;;;;;;;;;5009348;28;20108;-77
2023/05/15 09:46:15;;;;;;;19.85;17.92;;;;;;;;;;5012158;28;20117;-76
2023/05/15 09:48:41;;;;;;;21.20;19.00;;;;;;;;;;5012586;28;20045;-76
2023/05/15 09:51:13;;;;;;;20.13;18.23;;;;;;;;;;5011780;28;20026;-75
2023/05/15 09:53:39;;;;;;;17.75;16.10;;;;;;;;;;5013606;28;20030;-75
2023/05/15 09:56:04;;;;;;;16.20;14.70;;;;;;;;;;5011019;28;20034;-75
2023/05/15 09:58:30;;;;;;;19.10;17.10;;;;;;;;;;5012216;28;20078;-76
2023/05/15 10:00:58;;;;;;;17.20;15.68;;;;;;;;;;5012905;28;20033;-76
2023/05/15 10:03:23;;;;;;;16.23;14.73;;;;;;;;;;5010476;28;20034;-77
2023/05/15 10:05:48;;;;;;;15.75;14.25;;;;;;;;;;5009121;28;20049;-75
2023/05/15 10:08:15;;;;;;;14.43;12.95;;;;;;;;;;5013535;28;20036;-76
2023/05/15 10:10:40;;;;;;;16.30;14.55;;;;;;;;;;5013393;28;20037;-75
2023/05/15 10:13:07;;;;;;;15.50;14.10;;;;;;;;;;5013345;28;20378;-76
2023/05/15 10:15:32;;;;;;;15.23;13.70;;;;;;;;;;5008424;28;20018;-76
2023/05/15 10:17:59;;;;;;;15.45;14.07;;;;;;;;;;5011577;28;20033;-77
2023/05/15 10:20:24;;;;;;;14.90;13.35;;;;;;;;;;5014118;28;20131;-75
2023/05/15 10:22:51;;;;;;;16.23;14.52;;;;;;;;;;5011031;28;20188;-76
2023/05/15 10:25:16;;;;;;;16.08;14.57;;;;;;;;;;5012818;28;20032;-77
2023/05/15 10:27:42;;;;;;;15.15;13.70;;;;;;;;;;5010549;28;20034;-77
2023/05/15 10:30:09;;;;;;;15.50;13.43;;;;;;;;;;5013296;28;20029;-75
2023/05/15 10:32:35;;;;;;;15.23;13.60;;;;;;;;;;5011100;28;20034;-76
2023/05/15 10:35:01;;;;;;;13.55;12.35;;;;;;;;;;5012083;28;20089;-76
2023/05/15 10:37:27;;;;;;;12.35;11.15;;;;;;;;;;5012397;28;20018;-75
2023/05/15 10:39:54;;;;;;;13.10;11.90;;;;;;;;;;5012861;28;20054;-75
2023/05/15 10:42:20;;;;;;;14.52;11.93;;;;;;;;;;5010895;28;20049;-75
2023/05/15 10:44:46;;;;;;;14.02;11.35;;;;;;;;;;5012342;28;20496;-77
2023/05/15 10:47:11;;;;;;;11.50;10.27;;;;;;;;;;5010883;28;20045;-76
2023/05/15 10:49:36;;;;;;;12.13;11.02;;;;;;;;;;5010462;28;20025;-74
2023/05/15 10:52:02;;;;;;;11.77;10.77;;;;;;;;;;5007104;28;20348;-75
2023/05/15 10:54:27;;;;;;;11.43;10.35;;;;;;;;;;5010440;28;20022;-75
2023/05/15 10:56:54;;;;;;;10.82;9.82;;;;;;;;;;5010974;28;20014;-76
2023/05/15 10:59:20;;;;;;;10.55;9.55;;;;;;;;;;5009435;28;20037;-75
2023/05/15 11:01:45;;;;;;;11.02;9.90;;;;;;;;;;5012329;28;20044;-75
2023/05/15 11:04:12;;;;;;;12.80;10.65;;;;;;;;;;5013479;28;20117;-76
2023/05/15 11:06:38;;;;;;;17.75;11.45;;;;;;;;;;5016685;28;20134;-74
2023/05/15 11:09:23;;;;;;;12.57;9.85;;;;;;;;;;5016423;28;20068;-76
2023/05/15 11:11:51;;;;;;;10.60;9.60;;;;;;;;;;5013967;28;20018;-77
2023/05/15 11:14:37;;;;;;;10.63;9.20;;;;;;;;;;5015337;28;20033;-75
2023/05/15 11:17:03;;;;;;;10.30;8.32;;;;;;;;;;5014941;28;20798;-75
2023/05/15 11:19:38;;;;;;;10.18;9.18;;;;;;;;;;5016491;28;20032;-75
2023/05/15 11:22:07;;;;;;;10.55;9.55;;;;;;;;;;5014553;28;20037;-75
2023/05/15 11:24:45;;;;;;;9.88;8.88;;;;;;;;;;5014237;28;20045;-74
2023/05/15 11:27:11;;;;;;;13.90;11.37;;;;;;;;;;5014623;28;20017;-75
2023/05/15 11:29:57;;;;;;;13.60;12.13;;;;;;;;;;5015562;28;20024;-74
2023/05/15 11:32:41;;;;;;;11.93;10.82;;;;;;;;;;5015346;28;20041;-77
2023/05/15 11:35:10;;;;;;;11.77;9.35;;;;;;;;;;5012039;28;20057;-75
2023/05/15 11:37:43;;;;;;;14.68;10.43;;;;;;;;;;5015714;28;20026;-74
2023/05/15 11:40:12;;;;;;;11.13;10.13;;;;;;;;;;5013660;28;20082;-75
2023/05/15 11:42:37;;;;;;;13.23;10.32;;;;;;;;;;5014056;28;20821;-74
2023/05/15 11:45:03;;;;;;;11.50;10.27;;;;;;;;;;5015769;28;20037;-76
2023/05/15 11:47:30;;;;;;;11.05;9.88;;;;;;;;;;5014549;28;20544;-75
2023/05/15 11:49:55;;;;;;;11.52;10.38;;;;;;;;;;5015000;28;20067;-74
2023/05/15 11:52:21;;;;;;;10.57;9.60;;;;;;;;;;5012943;28;20076;-75
2023/05/15 11:54:46;;;;;;;12.90;9.95;;;;;;;;;;5012866;28;20063;-75
2023/05/15 11:57:12;;;;;;;11.13;10.10;;;;;;;;;;5015729;28;20076;-74
2023/05/15 11:59:37;;;;;;;10.93;9.93;;;;;;;;;;5015872;28;20352;-74
2023/05/15 12:02:04;;;;;;;10.75;9.77;;;;;;;;;;5014365;28;20356;-75
2023/05/15 12:04:32;;;;;;;12.65;11.43;;;;;;;;;;5011562;28;20389;-75
2023/05/15 12:07:00;;;;;;;29.35;16.33;;;;;;;;;;5014994;28;20072;-75
2023/05/15 12:09:27;;;;;;;34.15;22.30;;;;;;;;;;5015270;28;20051;-75
2023/05/15 12:11:55;;;;;;;17.38;14.70;;;;;;;;;;5015136;28;20091;-75
2023/05/15 12:14:27;;;;;;;12.13;10.95;;;;;;;;;;5013191;28;20060;-75
2023/05/15 12:16:53;;;;;;;14.95;11.23;;;;;;;;;;5014086;28;20501;-75
2023/05/15 12:19:18;;;;;;;13.32;10.98;;;;;;;;;;5015855;28;20041;-74
2023/05/15 12:21:46;;;;;;;11.07;10.07;;;;;;;;;;5014907;28;20919;-75
2023/05/15 12:24:12;;;;;;;13.10;11.43;;;;;;;;;;5011216;28;20021;-74
2023/05/15 12:26:38;;;;;;;11.93;10.82;;;;;;;;;;5014465;28;20116;-76
2023/05/15 12:29:04;;;;;;;10.98;9.57;;;;;;;;;;5013658;28;20040;-76
2023/05/15 12:31:29;;;;;;;12.27;10.70;;;;;;;;;;5012368;28;20368;-76
2023/05/15 12:33:55;;;;;;;13.15;11.82;;;;;;;;;;5007992;28;20021;-75
2023/05/15 12:36:20;;;;;;;13.88;12.52;;;;;;;;;;4998845;28;20022;-76
2023/05/15 12:38:46;;;;;;;12.23;11.02;;;;;;;;;;5001034;28;20110;-74
2023/05/15 12:41:11;;;;;;;11.82;10.18;;;;;;;;;;5000116;28;20126;-75
2023/05/15 12:43:37;;;;;;;12.15;10.95;;;;;;;;;;5000998;28;20037;-74
2023/05/15 12:46:02;;;;;;;12.65;11.02;;;;;;;;;;5003263;28;20610;-75
2023/05/15 12:48:29;;;;;;;12.40;11.13;;;;;;;;;;4997507;28;20053;-76
2023/05/15 12:50:55;;;;;;;12.07;10.88;;;;;;;;;;4998136;28;20326;-76
2023/05/15 12:53:20;;;;;;;13.45;11.85;;;;;;;;;;5001025;28;20032;-76
2023/05/15 12:55:46;;;;;;;12.65;11.45;;;;;;;;;;4999697;28;20044;-75
2023/05/15 12:58:13;;;;;;;13.70;11.60;;;;;;;;;;4998731;28;20038;-75
2023/05/15 13:00:44;;;;;;;15.20;12.40;;;;;;;;;;4998599;28;20428;-75
2023/05/15 13:03:10;;;;;;;13.40;12.00;;;;;;;;;;4999073;28;20248;-75
2023/05/15 13:05:36;;;;;;;12.45;11.10;;;;;;;;;;4997830;28;20044;-75
2023/05/15 13:08:03;;;;;;;13.75;12.15;;;;;;;;;;4999271;28;20029;-75
2023/05/15 13:10:31;;;;;;;14.60;12.27;;;;;;;;;;4995837;28;20018;-74
2023/05/15 13:12:56;;;;;;;12.98;11.60;;;;;;;;;;4997445;28;20034;-76
2023/05/15 13:15:29;;;;;;;14.65;12.85;;;;;;;;;;4998423;28;20033;-75
2023/05/15 13:18:08;;;;;;;12.63;11.32;;;;;;;;;;4999034;28;20033;-75
2023/05/15 13:20:38;;;;;;;14.77;13.27;;;;;;;;;;4998994;28;20128;-76
2023/05/15 13:23:03;;;;;;;;;;;;;;;;;;5001788;28;20129;-75
2023/05/15 13:25:29;;;;;;;14.80;13.03;;;;;;;;;;5005223;28;20012;-76
2023/05/15 13:27:56;;;;;;;13.52;12.13;;;;;;;;;;4990119;28;20365;-76
2023/05/15 13:30:21;;;;;;;16.98;15.30;;;;;;;;;;4992471;28;20052;-76
2023/05/15 13:32:46;;;;;;;76.10;63.75;;;;;;;;;;4994305;28;20448;-76
2023/05/15 13:35:12;;;;;;;59.45;50.80;;;;;;;;;;5014518;28;20340;-77
2023/05/15 13:37:37;;;;;;;27.83;24.67;;;;;;;;;;5011385;28;20035;-77
2023/05/15 13:40:08;;;;;;;233.00;185.48;;;;;;;;;;5008316;28;20087;-75
2023/05/15 13:42:34;;;;;;;86.10;70.38;;;;;;;;;;5008695;28;20053;-74
2023/05/15 13:44:59;;;;;;;52.88;43.60;;;;;;;;;;5012923;28;20635;-75
2023/05/15 13:47:25;;;;;;;32.05;28.65;;;;;;;;;;5013307;28;20472;-75
2023/05/15 13:49:51;;;;;;;32.08;28.63;;;;;;;;;;5013480;28;20017;-77
2023/05/15 13:52:16;;;;;;;18.73;16.73;;;;;;;;;;5009181;28;20081;-76
2023/05/15 13:54:42;;;;;;;22.45;20.10;;;;;;;;;;5007516;28;20038;-76
2023/05/15 13:57:07;;;;;;;21.25;19.05;;;;;;;;;;5002086;28;20910;-76
2023/05/15 13:59:32;;;;;;;24.75;20.58;;;;;;;;;;4999259;28;20105;-76
2023/05/15 14:01:58;;;;;;;31.48;28.25;;;;;;;;;;5010100;28;20120;-76
2023/05/15 14:04:23;;;;;;;27.17;23.38;;;;;;;;;;5006286;28;20568;-77
2023/05/15 14:06:49;;;;;;;50.10;41.83;;;;;;;;;;5000974;28;20064;-75
2023/05/15 14:09:15;;;;;;;32.40;27.20;;;;;;;;;;4995591;28;20025;-75
2023/05/15 14:11:40;;;;;;;28.75;24.10;;;;;;;;;;4997156;28;20017;-76
2023/05/15 14:14:05;;;;;;;62.10;50.90;;;;;;;;;;5001611;28;20375;-75
2023/05/15 14:16:31;;;;;;;44.92;37.55;;;;;;;;;;5012226;28;20033;-75